sensor_id;sensor_type;location;lat;lon;timestamp;pressure;altitude;pressure_sealevel;temperature;humidity
6413;BME280;3239;48.714;9.472;2023-04-22T00:02:15;97822.47;;;11.89;100.00
6413;BME280;3239;48.714;9.472;2023-04-22T00:04:42;97821.53;;;11.87;100.00
6413;BME280;3239;48.714;9.472;2023-04-22T00:07:11;97828.84;;;11.84;100.00
6413;BME280;3239;48.714;9.472;2023-04-22T00:09:37;97826.66;;;11.83;100.00
6413;BME280;3239;48.714;9.472;2023-04-22T00:12:03;97829.56;;;11.77;100.00
6413;BME280;3239;48.714;9.472;2023-04-22T00:14:29;97824.59;;;11.76;100.00
6413;BME280;3239;48.714;9.472;2023-04-22T00:16:56;97825.88;;;11.75;100.00
6413;BME280;3239;48.714;9.472;2023-04-22T00:19:21;97833.00;;;11.70;100.00
6413;BME280;3239;48.714;9.472;2023-04-22T00:21:47;97833.53;;;11.69;100.00
6413;BME280;3239;48.714;9.472;2023-04-22T00:24:13;97840.88;;;11.74;100.00
6413;BME280;3239;48.714;9.472;2023-04-22T00:26:39;97827.50;;;11.70;100.00
6413;BME280;3239;48.714;9.472;2023-04-22T00:29:04;97829.50;;;11.70;100.00
6413;BME280;3239;48.714;9.472;2023-04-22T00:31:30;97823.44;;;11.64;100.00
6413;BME280;3239;48.714;9.472;2023-04-22T00:33:56;97832.00;;;11.40;100.00
6413;BME280;3239;48.714;9.472;2023-04-22T00:36:22;97844.25;;;11.39;100.00
6413;BME280;3239;48.714;9.472;2023-04-22T00:38:48;97843.72;;;11.40;100.00
6413;BME280;3239;48.714;9.472;2023-04-22T00:41:17;97845.53;;;11.38;100.00
6413;BME280;3239;48.714;9.472;2023-04-22T00:43:43;97845.94;;;11.42;100.00
6413;BME280;3239;48.714;9.472;2023-04-22T00:46:09;97847.00;;;11.39;100.00
6413;BME280;3239;48.714;9.472;2023-04-22T00:48:38;97847.78;;;11.26;100.00
6413;BME280;3239;48.714;9.472;2023-04-22T00:51:05;97859.09;;;11.23;100.00
6413;BME280;3239;48.714;9.472;2023-04-22T00:53:31;97871.00;;;11.25;100.00
6413;BME280;3239;48.714;9.472;2023-04-22T00:55:57;97864.47;;;11.28;100.00
6413;BME280;3239;48.714;9.472;2023-04-22T00:58:28;97873.03;;;11.25;100.00
6413;BME280;3239;48.714;9.472;2023-04-22T01:00:54;97868.94;;;11.18;100.00
6413;BME280;3239;48.714;9.472;2023-04-22T01:03:20;97871.16;;;11.20;100.00
6413;BME280;3239;48.714;9.472;2023-04-22T01:05:49;97878.09;;;11.21;100.00
6413;BME280;3239;48.714;9.472;2023-04-22T01:08:15;97876.09;;;11.21;100.00
6413;BME280;3239;48.714;9.472;2023-04-22T01:10:42;97875.91;;;11.19;100.00
6413;BME280;3239;48.714;9.472;2023-04-22T01:13:08;97871.50;;;11.16;100.00
6413;BME280;3239;48.714;9.472;2023-04-22T01:15:34;97879.31;;;11.12;100.00
6413;BME280;3239;48.714;9.472;2023-04-22T01:18:01;97878.72;;;11.06;100.00
6413;BME280;3239;48.714;9.472;2023-04-22T01:20:28;97878.16;;;11.08;100.00
6413;BME280;3239;48.714;9.472;2023-04-22T01:22:55;97880.72;;;11.06;100.00
6413;BME280;3239;48.714;9.472;2023-04-22T01:25:23;97880.03;;;11.13;100.00
6413;BME280;3239;48.714;9.472;2023-04-22T01:27:49;97874.63;;;11.00;100.00
6413;BME280;3239;48.714;9.472;2023-04-22T01:30:16;97888.13;;;10.98;100.00
6413;BME280;3239;48.714;9.472;2023-04-22T01:32:41;97881.75;;;11.03;100.00
6413;BME280;3239;48.714;9.472;2023-04-22T01:35:09;97886.38;;;11.08;100.00
6413;BME280;3239;48.714;9.472;2023-04-22T01:37:35;97874.16;;;11.29;100.00
6413;BME280;3239;48.714;9.472;2023-04-22T01:40:02;97864.78;;;11.45;100.00
6413;BME280;3239;48.714;9.472;2023-04-22T01:42:32;97844.84;;;11.45;100.00
6413;BME280;3239;48.714;9.472;2023-04-22T01:44:58;97838.84;;;11.26;100.00
6413;BME280;3239;48.714;9.472;2023-04-22T01:47:24;97835.34;;;11.25;100.00
6413;BME280;3239;48.714;9.472;2023-04-22T01:49:50;97846.00;;;11.08;100.00
6413;BME280;3239;48.714;9.472;2023-04-22T01:52:16;97855.50;;;11.07;100.00
6413;BME280;3239;48.714;9.472;2023-04-22T01:54:42;97854.91;;;11.01;100.00
6413;BME280;3239;48.714;9.472;2023-04-22T01:57:11;97853.81;;;10.84;100.00
6413;BME280;3239;48.714;9.472;2023-04-22T01:59:39;97861.28;;;10.83;100.00
6413;BME280;3239;48.714;9.472;2023-04-22T02:02:05;97867.19;;;10.87;100.00
6413;BME280;3239;48.714;9.472;2023-04-22T02:04:31;97872.13;;;10.89;100.00
6413;BME280;3239;48.714;9.472;2023-04-22T02:06:57;97876.16;;;10.88;100.00
6413;BME280;3239;48.714;9.472;2023-04-22T02:09:23;97879.19;;;10.84;100.00
6413;BME280;3239;48.714;9.472;2023-04-22T02:11:49;97887.41;;;10.84;100.00
6413;BME280;3239;48.714;9.472;2023-04-22T02:14:15;97879.53;;;10.81;100.00
6413;BME280;3239;48.714;9.472;2023-04-22T02:16:41;97878.19;;;10.74;100.00
6413;BME280;3239;48.714;9.472;2023-04-22T02:19:07;97889.69;;;10.73;100.00
6413;BME280;3239;48.714;9.472;2023-04-22T02:21:33;97884.63;;;10.77;100.00
6413;BME280;3239;48.714;9.472;2023-04-22T02:23:59;97896.97;;;10.70;100.00
6413;BME280;3239;48.714;9.472;2023-04-22T02:26:25;97898.78;;;10.55;100.00
6413;BME280;3239;48.714;9.472;2023-04-22T02:28:54;97898.88;;;10.62;100.00
6413;BME280;3239;48.714;9.472;2023-04-22T02:31:19;97901.81;;;10.64;100.00
6413;BME280;3239;48.714;9.472;2023-04-22T02:33:45;97897.59;;;10.63;100.00
6413;BME280;3239;48.714;9.472;2023-04-22T02:36:11;97905.19;;;10.57;100.00
6413;BME280;3239;48.714;9.472;2023-04-22T02:38:37;97905.75;;;10.56;100.00
6413;BME280;3239;48.714;9.472;2023-04-22T02:41:03;97903.31;;;10.52;100.00
6413;BME280;3239;48.714;9.472;2023-04-22T02:43:29;97912.69;;;10.57;100.00
6413;BME280;3239;48.714;9.472;2023-04-22T02:45:55;97912.28;;;10.53;100.00
6413;BME280;3239;48.714;9.472;2023-04-22T02:48:20;97919.25;;;10.41;100.00
6413;BME280;3239;48.714;9.472;2023-04-22T02:50:46;97920.41;;;10.45;100.00
6413;BME280;3239;48.714;9.472;2023-04-22T02:53:12;97917.13;;;10.47;100.00
6413;BME280;3239;48.714;9.472;2023-04-22T02:55:40;97923.47;;;10.42;100.00
6413;BME280;3239;48.714;9.472;2023-04-22T02:58:06;97931.88;;;10.44;100.00
6413;BME280;3239;48.714;9.472;2023-04-22T03:00:33;97928.59;;;10.45;100.00
6413;BME280;3239;48.714;9.472;2023-04-22T03:02:59;97931.16;;;10.43;100.00
6413;BME280;3239;48.714;9.472;2023-04-22T03:05:25;97937.16;;;10.42;100.00
6413;BME280;3239;48.714;9.472;2023-04-22T03:07:52;97934.94;;;10.40;100.00
6413;BME280;3239;48.714;9.472;2023-04-22T03:10:17;97933.13;;;10.43;100.00
6413;BME280;3239;48.714;9.472;2023-04-22T03:12:43;97923.47;;;10.42;100.00
6413;BME280;3239;48.714;9.472;2023-04-22T03:15:09;97916.50;;;10.41;100.00
6413;BME280;3239;48.714;9.472;2023-04-22T03:17:35;97915.13;;;10.34;100.00
6413;BME280;3239;48.714;9.472;2023-04-22T03:20:01;97910.00;;;10.31;100.00
6413;BME280;3239;48.714;9.472;2023-04-22T03:22:27;97915.56;;;10.25;100.00
6413;BME280;3239;48.714;9.472;2023-04-22T03:24:52;97917.56;;;10.25;100.00
6413;BME280;3239;48.714;9.472;2023-04-22T03:27:18;97919.03;;;10.26;100.00
6413;BME280;3239;48.714;9.472;2023-04-22T03:29:44;97916.81;;;10.24;100.00
6413;BME280;3239;48.714;9.472;2023-04-22T03:32:10;97923.56;;;10.23;100.00
6413;BME280;3239;48.714;9.472;2023-04-22T03:34:36;97914.22;;;10.19;100.00
6413;BME280;3239;48.714;9.472;2023-04-22T03:37:01;97918.75;;;10.16;100.00
6413;BME280;3239;48.714;9.472;2023-04-22T03:39:27;97914.50;;;10.15;100.00
6413;BME280;3239;48.714;9.472;2023-04-22T03:41:53;97913.16;;;10.09;100.00
6413;BME280;3239;48.714;9.472;2023-04-22T03:44:18;97910.72;;;10.05;100.00
6413;BME280;3239;48.714;9.472;2023-04-22T03:46:44;97910.19;;;10.07;100.00
6413;BME280;3239;48.714;9.472;2023-04-22T03:49:11;97902.28;;;10.03;100.00
6413;BME280;3239;48.714;9.472;2023-04-22T03:51:36;97909.75;;;10.03;100.00
6413;BME280;3239;48.714;9.472;2023-04-22T03:54:02;97911.13;;;9.96;100.00
6413;BME280;3239;48.714;9.472;2023-04-22T03:56:28;97901.44;;;9.95;100.00
6413;BME280;3239;48.714;9.472;2023-04-22T03:58:54;97902.78;;;9.76;100.00
6413;BME280;3239;48.714;9.472;2023-04-22T04:01:19;97907.22;;;9.79;100.00
6413;BME280;3239;48.714;9.472;2023-04-22T04:03:45;97905.75;;;9.78;100.00
6413;BME280;3239;48.714;9.472;2023-04-22T04:06:11;97905.75;;;9.78;100.00
6413;BME280;3239;48.714;9.472;2023-04-22T04:08:36;97908.56;;;9.72;100.00
6413;BME280;3239;48.714;9.472;2023-04-22T04:11:03;97907.63;;;9.70;100.00
6413;BME280;3239;48.714;9.472;2023-04-22T04:13:28;97902.88;;;9.70;100.00
6413;BME280;3239;48.714;9.472;2023-04-22T04:15:58;97910.47;;;9.77;100.00
6413;BME280;3239;48.714;9.472;2023-04-22T04:18:24;97908.38;;;9.70;100.00
6413;BME280;3239;48.714;9.472;2023-04-22T04:20:51;97900.66;;;9.56;100.00
6413;BME280;3239;48.714;9.472;2023-04-22T04:23:16;97896.44;;;9.55;100.00
6413;BME280;3239;48.714;9.472;2023-04-22T04:25:42;97909.16;;;9.52;100.00
6413;BME280;3239;48.714;9.472;2023-04-22T04:28:09;97909.69;;;9.51;100.00
6413;BME280;3239;48.714;9.472;2023-04-22T04:30:36;97920.00;;;9.45;100.00
6413;BME280;3239;48.714;9.472;2023-04-22T04:33:03;97923.69;;;9.47;100.00
6413;BME280;3239;48.714;9.472;2023-04-22T04:35:35;97917.47;;;9.47;100.00
6413;BME280;3239;48.714;9.472;2023-04-22T04:38:04;97926.50;;;9.42;100.00
6413;BME280;3239;48.714;9.472;2023-04-22T04:40:31;97918.50;;;9.44;100.00
6413;BME280;3239;48.714;9.472;2023-04-22T04:42:57;97929.75;;;9.40;100.00
6413;BME280;3239;48.714;9.472;2023-04-22T04:45:23;97928.28;;;9.39;100.00
6413;BME280;3239;48.714;9.472;2023-04-22T04:47:49;97927.75;;;9.41;100.00
6413;BME280;3239;48.714;9.472;2023-04-22T04:50:17;97934.25;;;9.38;100.00
6413;BME280;3239;48.714;9.472;2023-04-22T04:52:45;97931.09;;;9.34;100.00
6413;BME280;3239;48.714;9.472;2023-04-22T04:55:11;97929.91;;;9.29;100.00
6413;BME280;3239;48.714;9.472;2023-04-22T04:57:37;97946.47;;;9.37;100.00
6413;BME280;3239;48.714;9.472;2023-04-22T05:00:03;97949.94;;;9.37;100.00
6413;BME280;3239;48.714;9.472;2023-04-22T05:02:29;97955.53;;;9.45;100.00
6413;BME280;3239;48.714;9.472;2023-04-22T05:04:55;97960.34;;;9.39;100.00
6413;BME280;3239;48.714;9.472;2023-04-22T05:07:21;97963.16;;;9.33;100.00
6413;BME280;3239;48.714;9.472;2023-04-22T05:09:46;97969.16;;;9.32;100.00
6413;BME280;3239;48.714;9.472;2023-04-22T05:12:12;97974.00;;;9.39;100.00
6413;BME280;3239;48.714;9.472;2023-04-22T05:14:38;97966.56;;;9.39;100.00
6413;BME280;3239;48.714;9.472;2023-04-22T05:17:05;97971.00;;;9.42;100.00
6413;BME280;3239;48.714;9.472;2023-04-22T05:19:31;97967.63;;;9.49;100.00
6413;BME280;3239;48.714;9.472;2023-04-22T05:21:56;97968.34;;;9.50;100.00
6413;BME280;3239;48.714;9.472;2023-04-22T05:24:22;97974.72;;;9.58;100.00
6413;BME280;3239;48.714;9.472;2023-04-22T05:26:48;97972.31;;;9.67;100.00
6413;BME280;3239;48.714;9.472;2023-04-22T05:29:14;97971.72;;;9.74;100.00
6413;BME280;3239;48.714;9.472;2023-04-22T05:31:40;97967.84;;;9.83;100.00
6413;BME280;3239;48.714;9.472;2023-04-22T05:34:06;97961.75;;;9.90;100.00
6413;BME280;3239;48.714;9.472;2023-04-22T05:36:31;97960.38;;;9.96;100.00
6413;BME280;3239;48.714;9.472;2023-04-22T05:38:57;97963.75;;;10.02;100.00
6413;BME280;3239;48.714;9.472;2023-04-22T05:41:23;97956.97;;;10.09;100.00
6413;BME280;3239;48.714;9.472;2023-04-22T05:43:49;97956.75;;;10.20;100.00
6413;BME280;3239;48.714;9.472;2023-04-22T05:46:15;97952.94;;;10.23;100.00
6413;BME280;3239;48.714;9.472;2023-04-22T05:48:40;97953.78;;;10.31;100.00
6413;BME280;3239;48.714;9.472;2023-04-22T05:51:06;97949.81;;;10.19;100.00
6413;BME280;3239;48.714;9.472;2023-04-22T05:53:32;97947.69;;;10.12;100.00
6413;BME280;3239;48.714;9.472;2023-04-22T05:55:58;97951.59;;;10.16;100.00
6413;BME280;3239;48.714;9.472;2023-04-22T05:58:24;97953.31;;;10.01;100.00
6413;BME280;3239;48.714;9.472;2023-04-22T06:00:49;97954.91;;;9.96;100.00
6413;BME280;3239;48.714;9.472;2023-04-22T06:03:15;97968.41;;;10.20;100.00
6413;BME280;3239;48.714;9.472;2023-04-22T06:05:41;97964.22;;;10.32;100.00
6413;BME280;3239;48.714;9.472;2023-04-22T06:08:08;97963.38;;;10.50;100.00
6413;BME280;3239;48.714;9.472;2023-04-22T06:10:34;97959.44;;;10.72;100.00
6413;BME280;3239;48.714;9.472;2023-04-22T06:13:00;97965.22;;;10.81;100.00
6413;BME280;3239;48.714;9.472;2023-04-22T06:15:26;97963.63;;;10.86;100.00
6413;BME280;3239;48.714;9.472;2023-04-22T06:17:52;97956.53;;;10.57;100.00
6413;BME280;3239;48.714;9.472;2023-04-22T06:20:17;97948.88;;;10.89;100.00
6413;BME280;3239;48.714;9.472;2023-04-22T06:22:43;97938.03;;;11.17;100.00
6413;BME280;3239;48.714;9.472;2023-04-22T06:25:09;97920.72;;;11.22;100.00
6413;BME280;3239;48.714;9.472;2023-04-22T06:27:35;97915.41;;;11.24;100.00
6413;BME280;3239;48.714;9.472;2023-04-22T06:30:03;97906.25;;;11.01;100.00
6413;BME280;3239;48.714;9.472;2023-04-22T06:32:29;97911.16;;;11.36;100.00
6413;BME280;3239;48.714;9.472;2023-04-22T06:34:54;97897.47;;;11.84;100.00
6413;BME280;3239;48.714;9.472;2023-04-22T06:37:20;97880.63;;;12.08;100.00
6413;BME280;3239;48.714;9.472;2023-04-22T06:39:46;97865.06;;;12.54;100.00
6413;BME280;3239;48.714;9.472;2023-04-22T06:42:11;97838.75;;;12.81;100.00
6413;BME280;3239;48.714;9.472;2023-04-22T06:44:37;97815.34;;;12.95;100.00
6413;BME280;3239;48.714;9.472;2023-04-22T06:47:03;97795.75;;;13.36;100.00
6413;BME280;3239;48.714;9.472;2023-04-22T06:49:29;97767.28;;;13.56;100.00
6413;BME280;3239;48.714;9.472;2023-04-22T06:51:54;97748.19;;;13.65;100.00
6413;BME280;3239;48.714;9.472;2023-04-22T06:54:20;97738.25;;;13.70;100.00
6413;BME280;3239;48.714;9.472;2023-04-22T06:56:46;97715.06;;;13.88;100.00
6413;BME280;3239;48.714;9.472;2023-04-22T06:59:12;97699.81;;;13.87;100.00
6413;BME280;3239;48.714;9.472;2023-04-22T07:01:38;97688.16;;;14.11;100.00
6413;BME280;3239;48.714;9.472;2023-04-22T07:04:03;97687.19;;;14.23;100.00
6413;BME280;3239;48.714;9.472;2023-04-22T07:06:29;97673.53;;;14.33;100.00
6413;BME280;3239;48.714;9.472;2023-04-22T07:08:55;97672.94;;;14.66;100.00
6413;BME280;3239;48.714;9.472;2023-04-22T07:11:21;97656.44;;;14.59;100.00
6413;BME280;3239;48.714;9.472;2023-04-22T07:13:47;97659.66;;;14.16;100.00
6413;BME280;3239;48.714;9.472;2023-04-22T07:16:13;97655.00;;;14.33;100.00
6413;BME280;3239;48.714;9.472;2023-04-22T07:18:39;97655.44;;;14.47;100.00
6413;BME280;3239;48.714;9.472;2023-04-22T07:21:05;97643.31;;;14.91;100.00
6413;BME280;3239;48.714;9.472;2023-04-22T07:23:31;97633.47;;;14.81;100.00
6413;BME280;3239;48.714;9.472;2023-04-22T07:25:56;97629.19;;;15.04;100.00
6413;BME280;3239;48.714;9.472;2023-04-22T07:28:22;97637.47;;;15.21;100.00
6413;BME280;3239;48.714;9.472;2023-04-22T07:30:48;97624.91;;;15.11;100.00
6413;BME280;3239;48.714;9.472;2023-04-22T07:33:14;97620.69;;;15.27;100.00
6413;BME280;3239;48.714;9.472;2023-04-22T07:35:39;97626.44;;;14.87;100.00
6413;BME280;3239;48.714;9.472;2023-04-22T07:38:05;97631.09;;;14.60;100.00
6413;BME280;3239;48.714;9.472;2023-04-22T07:40:31;97623.81;;;14.72;100.00
6413;BME280;3239;48.714;9.472;2023-04-22T07:42:57;97629.28;;;15.14;100.00
6413;BME280;3239;48.714;9.472;2023-04-22T07:45:23;97619.13;;;15.16;100.00
6413;BME280;3239;48.714;9.472;2023-04-22T07:47:49;97603.09;;;15.39;100.00
6413;BME280;3239;48.714;9.472;2023-04-22T07:50:15;97592.13;;;15.15;100.00
6413;BME280;3239;48.714;9.472;2023-04-22T07:52:41;97595.34;;;15.55;100.00
6413;BME280;3239;48.714;9.472;2023-04-22T07:55:07;97588.09;;;15.59;100.00
6413;BME280;3239;48.714;9.472;2023-04-22T07:57:33;97595.03;;;15.17;100.00
6413;BME280;3239;48.714;9.472;2023-04-22T08:00:05;97596.50;;;15.52;100.00
6413;BME280;3239;48.714;9.472;2023-04-22T08:02:31;97604.56;;;15.67;100.00
6413;BME280;3239;48.714;9.472;2023-04-22T08:04:57;97598.81;;;15.72;100.00
6413;BME280;3239;48.714;9.472;2023-04-22T08:07:23;97599.44;;;16.07;100.00
6413;BME280;3239;48.714;9.472;2023-04-22T08:09:49;97591.41;;;16.01;100.00
6413;BME280;3239;48.714;9.472;2023-04-22T08:12:15;97609.09;;;16.25;100.00
6413;BME280;3239;48.714;9.472;2023-04-22T08:14:40;97599.78;;;16.47;100.00
6413;BME280;3239;48.714;9.472;2023-04-22T08:17:06;97606.66;;;16.55;100.00
6413;BME280;3239;48.714;9.472;2023-04-22T08:19:32;97604.53;;;16.82;100.00
6413;BME280;3239;48.714;9.472;2023-04-22T08:21:58;97598.94;;;16.73;100.00
6413;BME280;3239;48.714;9.472;2023-04-22T08:24:23;97594.63;;;17.17;100.00
6413;BME280;3239;48.714;9.472;2023-04-22T08:26:49;97595.72;;;18.09;100.00
6413;BME280;3239;48.714;9.472;2023-04-22T08:29:15;97588.56;;;18.16;100.00
6413;BME280;3239;48.714;9.472;2023-04-22T08:31:41;97593.75;;;17.81;100.00
6413;BME280;3239;48.714;9.472;2023-04-22T08:34:07;97574.25;;;17.51;100.00
6413;BME280;3239;48.714;9.472;2023-04-22T08:36:33;97587.50;;;17.71;100.00
6413;BME280;3239;48.714;9.472;2023-04-22T08:38:58;97588.72;;;17.99;100.00
6413;BME280;3239;48.714;9.472;2023-04-22T08:41:25;97578.25;;;18.89;100.00
6413;BME280;3239;48.714;9.472;2023-04-22T08:43:52;97578.13;;;18.35;100.00
6413;BME280;3239;48.714;9.472;2023-04-22T08:46:18;97579.94;;;18.12;100.00
6413;BME280;3239;48.714;9.472;2023-04-22T08:48:49;97584.53;;;18.28;100.00
6413;BME280;3239;48.714;9.472;2023-04-22T08:51:16;97577.53;;;18.67;100.00
6413;BME280;3239;48.714;9.472;2023-04-22T08:53:43;97571.69;;;18.63;100.00
6413;BME280;3239;48.714;9.472;2023-04-22T08:56:11;97573.72;;;19.47;100.00
6413;BME280;3239;48.714;9.472;2023-04-22T08:58:41;97573.44;;;19.31;100.00
6413;BME280;3239;48.714;9.472;2023-04-22T09:01:08;97565.25;;;19.45;100.00
6413;BME280;3239;48.714;9.472;2023-04-22T09:03:39;97575.38;;;20.17;100.00
6413;BME280;3239;48.714;9.472;2023-04-22T09:06:07;97573.38;;;20.88;100.00
6413;BME280;3239;48.714;9.472;2023-04-22T09:08:35;97562.72;;;21.69;100.00
6413;BME280;3239;48.714;9.472;2023-04-22T09:11:02;97564.19;;;23.03;100.00
6413;BME280;3239;48.714;9.472;2023-04-22T09:13:28;97559.69;;;22.04;100.00
6413;BME280;3239;48.714;9.472;2023-04-22T09:15:54;97554.59;;;21.62;94.59
6413;BME280;3239;48.714;9.472;2023-04-22T09:18:20;97550.13;;;22.07;92.79
6413;BME280;3239;48.714;9.472;2023-04-22T09:20:47;97542.06;;;21.74;91.19
6413;BME280;3239;48.714;9.472;2023-04-22T09:23:14;97550.28;;;21.97;89.35
6413;BME280;3239;48.714;9.472;2023-04-22T09:25:40;97536.94;;;22.75;70.20
6413;BME280;3239;48.714;9.472;2023-04-22T09:28:11;97537.44;;;21.79;66.61
6413;BME280;3239;48.714;9.472;2023-04-22T09:30:44;97544.69;;;21.84;66.48
6413;BME280;3239;48.714;9.472;2023-04-22T09:33:10;97529.50;;;23.22;51.01
6413;BME280;3239;48.714;9.472;2023-04-22T09:35:40;97532.03;;;21.69;53.76
6413;BME280;3239;48.714;9.472;2023-04-22T09:38:09;97534.22;;;22.36;53.05
6413;BME280;3239;48.714;9.472;2023-04-22T09:40:37;97536.19;;;22.34;60.47
6413;BME280;3239;48.714;9.472;2023-04-22T09:43:07;97535.31;;;22.99;55.37
6413;BME280;3239;48.714;9.472;2023-04-22T09:45:39;97534.13;;;23.31;53.74
6413;BME280;3239;48.714;9.472;2023-04-22T09:48:19;97532.66;;;22.20;55.88
6413;BME280;3239;48.714;9.472;2023-04-22T09:50:48;97527.88;;;20.95;63.16
6413;BME280;3239;48.714;9.472;2023-04-22T09:53:17;97528.00;;;21.22;68.79
6413;BME280;3239;48.714;9.472;2023-04-22T09:55:49;97516.31;;;21.37;61.88
6413;BME280;3239;48.714;9.472;2023-04-22T09:58:18;97515.31;;;22.48;56.04
6413;BME280;3239;48.714;9.472;2023-04-22T10:00:54;97514.59;;;22.75;55.02
6413;BME280;3239;48.714;9.472;2023-04-22T10:03:21;97512.03;;;23.66;50.33
6413;BME280;3239;48.714;9.472;2023-04-22T10:05:47;97508.88;;;23.29;48.73
6413;BME280;3239;48.714;9.472;2023-04-22T10:08:15;97508.78;;;23.13;59.21
6413;BME280;3239;48.714;9.472;2023-04-22T10:10:42;97502.94;;;24.27;56.62
6413;BME280;3239;48.714;9.472;2023-04-22T10:13:08;97507.38;;;24.81;49.02
6413;BME280;3239;48.714;9.472;2023-04-22T10:15:54;97503.72;;;24.61;54.26
6413;BME280;3239;48.714;9.472;2023-04-22T10:18:27;97497.84;;;23.77;59.67
6413;BME280;3239;48.714;9.472;2023-04-22T10:20:56;97493.03;;;24.09;51.12
6413;BME280;3239;48.714;9.472;2023-04-22T10:23:24;97497.59;;;24.33;52.02
6413;BME280;3239;48.714;9.472;2023-04-22T10:25:53;97495.34;;;24.30;53.11
6413;BME280;3239;48.714;9.472;2023-04-22T10:28:21;97498.56;;;25.39;46.94
6413;BME280;3239;48.714;9.472;2023-04-22T10:30:48;97497.84;;;24.55;48.93
6413;BME280;3239;48.714;9.472;2023-04-22T10:36:21;97489.88;;;25.50;45.84
6413;BME280;3239;48.714;9.472;2023-04-22T10:41:15;97488.06;;;27.58;39.10
6413;BME280;3239;48.714;9.472;2023-04-22T10:43:47;97475.41;;;28.55;39.93
6413;BME280;3239;48.714;9.472;2023-04-22T10:49:18;97467.63;;;26.69;41.63
6413;BME280;3239;48.714;9.472;2023-04-22T10:52:01;97469.53;;;29.27;39.16
6413;BME280;3239;48.714;9.472;2023-04-22T10:57:13;97461.38;;;28.06;37.17
6413;BME280;3239;48.714;9.472;2023-04-22T10:59:48;97453.47;;;27.77;39.00
6413;BME280;3239;48.714;9.472;2023-04-22T11:02:17;97453.28;;;28.43;37.87
6413;BME280;3239;48.714;9.472;2023-04-22T11:04:43;97456.84;;;28.99;36.10
6413;BME280;3239;48.714;9.472;2023-04-22T11:17:31;97443.44;;;25.28;38.69
6413;BME280;3239;48.714;9.472;2023-04-22T11:19:58;97454.81;;;25.32;37.63
6413;BME280;3239;48.714;9.472;2023-04-22T11:22:24;97449.34;;;24.83;40.01
6413;BME280;3239;48.714;9.472;2023-04-22T11:24:58;97448.88;;;24.56;39.57
6413;BME280;3239;48.714;9.472;2023-04-22T11:27:25;97450.72;;;25.17;36.62
6413;BME280;3239;48.714;9.472;2023-04-22T11:30:20;97452.78;;;24.82;34.93
6413;BME280;3239;48.714;9.472;2023-04-22T11:32:52;97450.38;;;24.41;34.51
6413;BME280;3239;48.714;9.472;2023-04-22T11:35:30;97445.56;;;24.44;35.08
6413;BME280;3239;48.714;9.472;2023-04-22T11:37:59;97442.28;;;24.01;34.79
6413;BME280;3239;48.714;9.472;2023-04-22T11:40:29;97433.50;;;25.07;33.29
6413;BME280;3239;48.714;9.472;2023-04-22T11:42:58;97436.53;;;24.78;34.58
6413;BME280;3239;48.714;9.472;2023-04-22T11:45:26;97438.94;;;24.53;36.69
6413;BME280;3239;48.714;9.472;2023-04-22T11:47:52;97434.25;;;23.93;37.91
6413;BME280;3239;48.714;9.472;2023-04-22T11:50:24;97437.25;;;24.13;38.45
6413;BME280;3239;48.714;9.472;2023-04-22T11:52:55;97441.28;;;24.10;37.91
6413;BME280;3239;48.714;9.472;2023-04-22T11:55:28;97440.78;;;24.79;38.93
6413;BME280;3239;48.714;9.472;2023-04-22T11:58:00;97441.56;;;25.52;35.64
6413;BME280;3239;48.714;9.472;2023-04-22T12:00:32;97430.75;;;25.81;36.90
6413;BME280;3239;48.714;9.472;2023-04-22T12:03:06;97437.31;;;25.88;35.14
6413;BME280;3239;48.714;9.472;2023-04-22T12:05:51;97434.31;;;26.01;34.64
6413;BME280;3239;48.714;9.472;2023-04-22T12:08:22;97437.22;;;25.49;33.50
6413;BME280;3239;48.714;9.472;2023-04-22T12:10:52;97440.19;;;24.65;32.34
6413;BME280;3239;48.714;9.472;2023-04-22T12:13:22;97439.19;;;25.27;32.85
6413;BME280;3239;48.714;9.472;2023-04-22T12:15:52;97421.97;;;24.99;32.90
6413;BME280;3239;48.714;9.472;2023-04-22T12:18:29;97419.06;;;24.80;34.26
6413;BME280;3239;48.714;9.472;2023-04-22T12:21:09;97429.25;;;24.56;35.36
6413;BME280;3239;48.714;9.472;2023-04-22T12:23:48;97424.84;;;25.01;35.07
6413;BME280;3239;48.714;9.472;2023-04-22T12:26:17;97419.19;;;25.54;36.40
6413;BME280;3239;48.714;9.472;2023-04-22T12:28:44;97419.59;;;25.46;32.94
6413;BME280;3239;48.714;9.472;2023-04-22T12:31:14;97418.47;;;26.10;34.31
6413;BME280;3239;48.714;9.472;2023-04-22T12:33:42;97420.28;;;25.27;33.71
6413;BME280;3239;48.714;9.472;2023-04-22T12:36:08;97414.03;;;25.66;36.86
6413;BME280;3239;48.714;9.472;2023-04-22T12:38:35;97408.69;;;25.54;34.39
6413;BME280;3239;48.714;9.472;2023-04-22T12:41:05;97408.09;;;25.21;34.38
6413;BME280;3239;48.714;9.472;2023-04-22T12:43:32;97411.94;;;25.12;33.68
6413;BME280;3239;48.714;9.472;2023-04-22T12:46:07;97417.16;;;24.51;33.46
6413;BME280;3239;48.714;9.472;2023-04-22T12:48:33;97410.75;;;24.82;34.08
6413;BME280;3239;48.714;9.472;2023-04-22T12:51:02;97410.34;;;24.72;32.41
6413;BME280;3239;48.714;9.472;2023-04-22T12:53:28;97407.84;;;24.80;33.86
6413;BME280;3239;48.714;9.472;2023-04-22T12:55:55;97400.22;;;25.52;33.75
6413;BME280;3239;48.714;9.472;2023-04-22T12:58:21;97398.56;;;24.75;33.72
6413;BME280;3239;48.714;9.472;2023-04-22T13:00:46;97405.53;;;25.27;35.38
6413;BME280;3239;48.714;9.472;2023-04-22T13:03:12;97401.94;;;25.81;36.48
6413;BME280;3239;48.714;9.472;2023-04-22T13:05:38;97403.91;;;25.76;34.99
6413;BME280;3239;48.714;9.472;2023-04-22T13:08:04;97397.44;;;25.91;33.51
6413;BME280;3239;48.714;9.472;2023-04-22T13:10:30;97403.03;;;26.30;34.79
6413;BME280;3239;48.714;9.472;2023-04-22T13:12:56;97406.28;;;25.27;35.06
6413;BME280;3239;48.714;9.472;2023-04-22T13:15:22;97408.75;;;25.02;34.99
6413;BME280;3239;48.714;9.472;2023-04-22T13:17:51;97413.63;;;24.33;33.98
6413;BME280;3239;48.714;9.472;2023-04-22T13:20:17;97402.47;;;24.18;35.29
6413;BME280;3239;48.714;9.472;2023-04-22T13:22:43;97403.00;;;24.47;37.82
6413;BME280;3239;48.714;9.472;2023-04-22T13:25:09;97397.06;;;24.39;37.01
6413;BME280;3239;48.714;9.472;2023-04-22T13:27:35;97390.78;;;23.90;36.39
6413;BME280;3239;48.714;9.472;2023-04-22T13:30:01;97396.44;;;24.08;37.96
6413;BME280;3239;48.714;9.472;2023-04-22T13:32:28;97394.78;;;24.18;38.60
6413;BME280;3239;48.714;9.472;2023-04-22T13:34:54;97389.41;;;24.40;39.96
6413;BME280;3239;48.714;9.472;2023-04-22T13:37:20;97381.28;;;23.97;37.90